sensor_id;sensor_type;location;lat;lon;timestamp;P1;durP1;ratioP1;P2;durP2;ratioP2
59024;SDS011;44806;48.008;13.666;2024-02-23T00:01:23;9.02;;;4.45;;
59024;SDS011;44806;48.008;13.666;2024-02-23T00:03:52;12.45;;;5.57;;
59024;SDS011;44806;48.008;13.666;2024-02-23T00:06:20;12.10;;;5.07;;
59024;SDS011;44806;48.008;13.666;2024-02-23T00:08:48;13.13;;;6.50;;
59024;SDS011;44806;48.008;13.666;2024-02-23T00:11:15;12.23;;;5.20;;
59024;SDS011;44806;48.008;13.666;2024-02-23T00:13:42;11.90;;;6.18;;
59024;SDS011;44806;48.008;13.666;2024-02-23T00:16:09;14.75;;;5.35;;
59024;SDS011;44806;48.008;13.666;2024-02-23T00:18:36;10.68;;;6.20;;
59024;SDS011;44806;48.008;13.666;2024-02-23T00:21:05;14.63;;;6.55;;
59024;SDS011;44806;48.008;13.666;2024-02-23T00:23:32;11.85;;;5.03;;
59024;SDS011;44806;48.008;13.666;2024-02-23T00:25:59;12.25;;;6.47;;
59024;SDS011;44806;48.008;13.666;2024-02-23T00:28:26;12.23;;;6.40;;
59024;SDS011;44806;48.008;13.666;2024-02-23T00:30:53;10.73;;;5.43;;
59024;SDS011;44806;48.008;13.666;2024-02-23T00:33:20;11.70;;;6.07;;
59024;SDS011;44806;48.008;13.666;2024-02-23T00:35:47;12.73;;;6.78;;
59024;SDS011;44806;48.008;13.666;2024-02-23T00:38:15;10.57;;;6.88;;
59024;SDS011;44806;48.008;13.666;2024-02-23T00:40:42;11.48;;;6.05;;
59024;SDS011;44806;48.008;13.666;2024-02-23T00:43:09;12.95;;;5.65;;
59024;SDS011;44806;48.008;13.666;2024-02-23T00:45:36;15.20;;;6.35;;
59024;SDS011;44806;48.008;13.666;2024-02-23T00:48:03;13.75;;;5.20;;
59024;SDS011;44806;48.008;13.666;2024-02-23T00:50:31;12.43;;;6.28;;
59024;SDS011;44806;48.008;13.666;2024-02-23T00:52:58;11.50;;;5.93;;
59024;SDS011;44806;48.008;13.666;2024-02-23T00:55:27;11.77;;;6.60;;
59024;SDS011;44806;48.008;13.666;2024-02-23T00:57:54;13.32;;;6.68;;
59024;SDS011;44806;48.008;13.666;2024-02-23T01:00:21;13.65;;;7.13;;
59024;SDS011;44806;48.008;13.666;2024-02-23T01:02:48;14.20;;;6.72;;
59024;SDS011;44806;48.008;13.666;2024-02-23T01:05:15;14.80;;;7.18;;
59024;SDS011;44806;48.008;13.666;2024-02-23T01:07:43;11.40;;;6.95;;
59024;SDS011;44806;48.008;13.666;2024-02-23T01:10:10;13.23;;;7.32;;
59024;SDS011;44806;48.008;13.666;2024-02-23T01:12:39;13.98;;;6.22;;
59024;SDS011;44806;48.008;13.666;2024-02-23T01:15:06;11.93;;;6.30;;
59024;SDS011;44806;48.008;13.666;2024-02-23T01:17:33;10.75;;;5.10;;
59024;SDS011;44806;48.008;13.666;2024-02-23T01:20:00;12.07;;;5.57;;
59024;SDS011;44806;48.008;13.666;2024-02-23T01:22:27;14.20;;;6.57;;
59024;SDS011;44806;48.008;13.666;2024-02-23T01:24:54;13.80;;;7.72;;
59024;SDS011;44806;48.008;13.666;2024-02-23T01:27:21;15.63;;;6.90;;
59024;SDS011;44806;48.008;13.666;2024-02-23T01:29:49;13.30;;;7.95;;
59024;SDS011;44806;48.008;13.666;2024-02-23T01:32:16;9.65;;;4.80;;
59024;SDS011;44806;48.008;13.666;2024-02-23T01:34:43;6.03;;;2.55;;
59024;SDS011;44806;48.008;13.666;2024-02-23T01:37:10;6.97;;;2.15;;
59024;SDS011;44806;48.008;13.666;2024-02-23T01:39:37;8.15;;;2.55;;
59024;SDS011;44806;48.008;13.666;2024-02-23T01:42:04;6.53;;;2.05;;
59024;SDS011;44806;48.008;13.666;2024-02-23T01:44:31;5.35;;;2.08;;
59024;SDS011;44806;48.008;13.666;2024-02-23T01:47:00;5.20;;;2.22;;
59024;SDS011;44806;48.008;13.666;2024-02-23T01:49:27;6.80;;;1.70;;
59024;SDS011;44806;48.008;13.666;2024-02-23T01:51:57;4.10;;;1.42;;
59024;SDS011;44806;48.008;13.666;2024-02-23T01:54:25;4.50;;;1.55;;
59024;SDS011;44806;48.008;13.666;2024-02-23T01:56:53;3.80;;;1.40;;
59024;SDS011;44806;48.008;13.666;2024-02-23T01:59:21;3.85;;;1.25;;
59024;SDS011;44806;48.008;13.666;2024-02-23T02:01:48;3.13;;;1.15;;
59024;SDS011;44806;48.008;13.666;2024-02-23T02:04:17;4.30;;;0.95;;
59024;SDS011;44806;48.008;13.666;2024-02-23T02:06:44;3.67;;;0.80;;
59024;SDS011;44806;48.008;13.666;2024-02-23T02:09:12;2.33;;;0.80;;
59024;SDS011;44806;48.008;13.666;2024-02-23T02:11:44;4.28;;;0.90;;
59024;SDS011;44806;48.008;13.666;2024-02-23T02:14:12;3.70;;;0.85;;
59024;SDS011;44806;48.008;13.666;2024-02-23T02:16:39;3.60;;;1.33;;
59024;SDS011;44806;48.008;13.666;2024-02-23T02:19:06;3.20;;;0.80;;
59024;SDS011;44806;48.008;13.666;2024-02-23T02:21:34;2.13;;;0.47;;
59024;SDS011;44806;48.008;13.666;2024-02-23T02:24:03;1.65;;;0.55;;
59024;SDS011;44806;48.008;13.666;2024-02-23T02:26:30;1.55;;;0.45;;
59024;SDS011;44806;48.008;13.666;2024-02-23T02:28:58;0.52;;;0.30;;
59024;SDS011;44806;48.008;13.666;2024-02-23T02:31:25;2.35;;;0.68;;
59024;SDS011;44806;48.008;13.666;2024-02-23T02:33:52;0.88;;;0.40;;
59024;SDS011;44806;48.008;13.666;2024-02-23T02:36:19;2.15;;;0.30;;
59024;SDS011;44806;48.008;13.666;2024-02-23T02:38:47;1.55;;;0.40;;
59024;SDS011;44806;48.008;13.666;2024-02-23T02:41:14;0.73;;;0.30;;
59024;SDS011;44806;48.008;13.666;2024-02-23T02:43:43;1.00;;;0.40;;
59024;SDS011;44806;48.008;13.666;2024-02-23T02:46:10;2.72;;;0.40;;
59024;SDS011;44806;48.008;13.666;2024-02-23T02:48:37;1.23;;;0.30;;
59024;SDS011;44806;48.008;13.666;2024-02-23T02:51:04;2.47;;;0.38;;
59024;SDS011;44806;48.008;13.666;2024-02-23T02:53:31;1.15;;;0.30;;
59024;SDS011;44806;48.008;13.666;2024-02-23T02:56:00;2.38;;;0.65;;
59024;SDS011;44806;48.008;13.666;2024-02-23T02:58:27;2.28;;;0.43;;
59024;SDS011;44806;48.008;13.666;2024-02-23T03:00:54;1.15;;;0.30;;
59024;SDS011;44806;48.008;13.666;2024-02-23T03:03:21;3.15;;;0.50;;
59024;SDS011;44806;48.008;13.666;2024-02-23T03:05:49;3.50;;;0.52;;
59024;SDS011;44806;48.008;13.666;2024-02-23T03:08:16;3.05;;;0.55;;
59024;SDS011;44806;48.008;13.666;2024-02-23T03:10:43;1.58;;;0.32;;
59024;SDS011;44806;48.008;13.666;2024-02-23T03:13:12;2.60;;;0.25;;
59024;SDS011;44806;48.008;13.666;2024-02-23T03:15:39;0.25;;;0.03;;
59024;SDS011;44806;48.008;13.666;2024-02-23T03:18:06;0.65;;;0.10;;
59024;SDS011;44806;48.008;13.666;2024-02-23T03:20:34;0.38;;;0.15;;
59024;SDS011;44806;48.008;13.666;2024-02-23T03:23:01;0.57;;;0.08;;
59024;SDS011;44806;48.008;13.666;2024-02-23T03:25:29;0.05;;;0.05;;
59024;SDS011;44806;48.008;13.666;2024-02-23T03:27:56;0.55;;;0.10;;
59024;SDS011;44806;48.008;13.666;2024-02-23T03:30:24;0.10;;;0.03;;
59024;SDS011;44806;48.008;13.666;2024-02-23T03:32:51;1.48;;;0.30;;
59024;SDS011;44806;48.008;13.666;2024-02-23T03:35:18;1.27;;;0.30;;
59024;SDS011;44806;48.008;13.666;2024-02-23T03:37:45;0.63;;;0.05;;
59024;SDS011;44806;48.008;13.666;2024-02-23T03:40:12;0.30;;;0.10;;
59024;SDS011;44806;48.008;13.666;2024-02-23T03:42:39;0.00;;;0.00;;
59024;SDS011;44806;48.008;13.666;2024-02-23T03:45:08;1.08;;;0.13;;
59024;SDS011;44806;48.008;13.666;2024-02-23T03:47:36;0.95;;;0.20;;
59024;SDS011;44806;48.008;13.666;2024-02-23T03:50:04;3.90;;;0.32;;
59024;SDS011;44806;48.008;13.666;2024-02-23T03:52:32;3.95;;;0.40;;
59024;SDS011;44806;48.008;13.666;2024-02-23T03:54:59;1.92;;;0.60;;
59024;SDS011;44806;48.008;13.666;2024-02-23T03:57:26;3.67;;;0.65;;
59024;SDS011;44806;48.008;13.666;2024-02-23T03:59:53;4.47;;;1.65;;
59024;SDS011;44806;48.008;13.666;2024-02-23T04:02:20;5.38;;;0.98;;
59024;SDS011;44806;48.008;13.666;2024-02-23T04:04:50;5.00;;;0.60;;
59024;SDS011;44806;48.008;13.666;2024-02-23T04:07:17;2.00;;;0.30;;
59024;SDS011;44806;48.008;13.666;2024-02-23T04:09:44;1.98;;;0.55;;
59024;SDS011;44806;48.008;13.666;2024-02-23T04:12:17;0.75;;;0.13;;
59024;SDS011;44806;48.008;13.666;2024-02-23T04:14:44;1.23;;;0.20;;
59024;SDS011;44806;48.008;13.666;2024-02-23T04:17:11;0.55;;;0.10;;
59024;SDS011;44806;48.008;13.666;2024-02-23T04:19:39;0.20;;;0.00;;
59024;SDS011;44806;48.008;13.666;2024-02-23T04:22:08;0.60;;;0.08;;
59024;SDS011;44806;48.008;13.666;2024-02-23T04:24:36;2.03;;;0.10;;
59024;SDS011;44806;48.008;13.666;2024-02-23T04:27:04;1.85;;;0.00;;
59024;SDS011;44806;48.008;13.666;2024-02-23T04:29:31;0.00;;;0.00;;
59024;SDS011;44806;48.008;13.666;2024-02-23T04:31:59;1.73;;;0.08;;
59024;SDS011;44806;48.008;13.666;2024-02-23T04:34:26;0.20;;;0.05;;
59024;SDS011;44806;48.008;13.666;2024-02-23T04:36:54;1.15;;;0.13;;
59024;SDS011;44806;48.008;13.666;2024-02-23T04:39:23;2.75;;;0.38;;
59024;SDS011;44806;48.008;13.666;2024-02-23T04:41:50;1.20;;;0.30;;
59024;SDS011;44806;48.008;13.666;2024-02-23T04:44:17;1.25;;;0.25;;
59024;SDS011;44806;48.008;13.666;2024-02-23T04:46:44;0.65;;;0.10;;
59024;SDS011;44806;48.008;13.666;2024-02-23T04:49:11;0.32;;;0.10;;
59024;SDS011;44806;48.008;13.666;2024-02-23T04:51:38;0.57;;;0.10;;
59024;SDS011;44806;48.008;13.666;2024-02-23T04:54:05;0.70;;;0.10;;
59024;SDS011;44806;48.008;13.666;2024-02-23T04:56:34;0.40;;;0.15;;
59024;SDS011;44806;48.008;13.666;2024-02-23T04:59:00;2.20;;;0.20;;
59024;SDS011;44806;48.008;13.666;2024-02-23T05:01:28;1.10;;;0.15;;
59024;SDS011;44806;48.008;13.666;2024-02-23T05:03:55;1.15;;;0.22;;
59024;SDS011;44806;48.008;13.666;2024-02-23T05:06:22;0.45;;;0.03;;
59024;SDS011;44806;48.008;13.666;2024-02-23T05:08:49;0.60;;;0.10;;
59024;SDS011;44806;48.008;13.666;2024-02-23T05:11:16;0.05;;;0.00;;
59024;SDS011;44806;48.008;13.666;2024-02-23T05:13:44;0.80;;;0.15;;
59024;SDS011;44806;48.008;13.666;2024-02-23T05:16:13;0.45;;;0.10;;
59024;SDS011;44806;48.008;13.666;2024-02-23T05:18:40;0.77;;;0.20;;
59024;SDS011;44806;48.008;13.666;2024-02-23T05:21:08;0.90;;;0.13;;
59024;SDS011;44806;48.008;13.666;2024-02-23T05:23:35;1.00;;;0.17;;
59024;SDS011;44806;48.008;13.666;2024-02-23T05:26:02;0.57;;;0.15;;
59024;SDS011;44806;48.008;13.666;2024-02-23T05:28:30;0.55;;;0.20;;
59024;SDS011;44806;48.008;13.666;2024-02-23T05:30:58;1.23;;;0.22;;
59024;SDS011;44806;48.008;13.666;2024-02-23T05:33:25;0.73;;;0.17;;
59024;SDS011;44806;48.008;13.666;2024-02-23T05:35:52;0.38;;;0.10;;
59024;SDS011;44806;48.008;13.666;2024-02-23T05:38:19;0.80;;;0.10;;
59024;SDS011;44806;48.008;13.666;2024-02-23T05:40:46;2.03;;;0.17;;
59024;SDS011;44806;48.008;13.666;2024-02-23T05:43:14;0.20;;;0.10;;
59024;SDS011;44806;48.008;13.666;2024-02-23T05:45:41;0.68;;;0.22;;
59024;SDS011;44806;48.008;13.666;2024-02-23T05:48:11;0.20;;;0.10;;
59024;SDS011;44806;48.008;13.666;2024-02-23T05:50:39;0.17;;;0.10;;
59024;SDS011;44806;48.008;13.666;2024-02-23T05:53:06;1.08;;;0.15;;
59024;SDS011;44806;48.008;13.666;2024-02-23T05:55:33;0.63;;;0.15;;
59024;SDS011;44806;48.008;13.666;2024-02-23T05:58:00;0.57;;;0.17;;
59024;SDS011;44806;48.008;13.666;2024-02-23T06:00:28;0.20;;;0.10;;
59024;SDS011;44806;48.008;13.666;2024-02-23T06:02:56;0.43;;;0.20;;
59024;SDS011;44806;48.008;13.666;2024-02-23T06:05:24;0.25;;;0.10;;
59024;SDS011;44806;48.008;13.666;2024-02-23T06:07:51;0.30;;;0.10;;
59024;SDS011;44806;48.008;13.666;2024-02-23T06:10:19;0.10;;;0.10;;
59024;SDS011;44806;48.008;13.666;2024-02-23T06:12:46;0.03;;;0.03;;
59024;SDS011;44806;48.008;13.666;2024-02-23T06:15:13;0.45;;;0.10;;
59024;SDS011;44806;48.008;13.666;2024-02-23T06:17:40;0.98;;;0.10;;
59024;SDS011;44806;48.008;13.666;2024-02-23T06:20:07;0.35;;;0.10;;
59024;SDS011;44806;48.008;13.666;2024-02-23T06:22:37;0.88;;;0.20;;
59024;SDS011;44806;48.008;13.666;2024-02-23T06:25:04;0.80;;;0.20;;
59024;SDS011;44806;48.008;13.666;2024-02-23T06:27:31;0.52;;;0.20;;
59024;SDS011;44806;48.008;13.666;2024-02-23T06:29:59;0.10;;;0.10;;
59024;SDS011;44806;48.008;13.666;2024-02-23T06:32:26;0.17;;;0.10;;
59024;SDS011;44806;48.008;13.666;2024-02-23T06:34:53;1.38;;;0.20;;
59024;SDS011;44806;48.008;13.666;2024-02-23T06:37:20;0.45;;;0.20;;
59024;SDS011;44806;48.008;13.666;2024-02-23T06:39:49;1.15;;;0.30;;
59024;SDS011;44806;48.008;13.666;2024-02-23T06:42:19;0.45;;;0.20;;
59024;SDS011;44806;48.008;13.666;2024-02-23T06:44:47;0.70;;;0.20;;
59024;SDS011;44806;48.008;13.666;2024-02-23T06:47:14;0.43;;;0.20;;
59024;SDS011;44806;48.008;13.666;2024-02-23T06:49:41;2.45;;;0.28;;
59024;SDS011;44806;48.008;13.666;2024-02-23T06:52:09;1.10;;;0.38;;
59024;SDS011;44806;48.008;13.666;2024-02-23T06:54:36;6.05;;;0.70;;
59024;SDS011;44806;48.008;13.666;2024-02-23T06:57:04;2.05;;;0.90;;
59024;SDS011;44806;48.008;13.666;2024-02-23T06:59:31;1.98;;;0.75;;
59024;SDS011;44806;48.008;13.666;2024-02-23T07:01:58;2.55;;;0.63;;
59024;SDS011;44806;48.008;13.666;2024-02-23T07:04:25;2.25;;;0.80;;
59024;SDS011;44806;48.008;13.666;2024-02-23T07:06:53;0.85;;;0.30;;
59024;SDS011;44806;48.008;13.666;2024-02-23T07:09:23;3.25;;;0.75;;
59024;SDS011;44806;48.008;13.666;2024-02-23T07:11:50;1.23;;;0.50;;
59024;SDS011;44806;48.008;13.666;2024-02-23T07:14:19;1.27;;;0.60;;
59024;SDS011;44806;48.008;13.666;2024-02-23T07:16:47;1.90;;;0.60;;
59024;SDS011;44806;48.008;13.666;2024-02-23T07:19:14;1.55;;;0.52;;
59024;SDS011;44806;48.008;13.666;2024-02-23T07:21:41;1.27;;;0.50;;
59024;SDS011;44806;48.008;13.666;2024-02-23T07:24:08;1.50;;;0.45;;
59024;SDS011;44806;48.008;13.666;2024-02-23T07:26:35;2.47;;;0.65;;
59024;SDS011;44806;48.008;13.666;2024-02-23T07:29:02;1.80;;;0.40;;
59024;SDS011;44806;48.008;13.666;2024-02-23T07:31:30;0.40;;;0.22;;
59024;SDS011;44806;48.008;13.666;2024-02-23T07:33:57;3.72;;;0.57;;
59024;SDS011;44806;48.008;13.666;2024-02-23T07:36:27;0.98;;;0.40;;
59024;SDS011;44806;48.008;13.666;2024-02-23T07:38:54;0.43;;;0.20;;
59024;SDS011;44806;48.008;13.666;2024-02-23T07:41:21;0.70;;;0.25;;
59024;SDS011;44806;48.008;13.666;2024-02-23T07:43:48;1.17;;;0.25;;
59024;SDS011;44806;48.008;13.666;2024-02-23T07:46:15;0.93;;;0.30;;
59024;SDS011;44806;48.008;13.666;2024-02-23T07:48:43;2.42;;;0.60;;
59024;SDS011;44806;48.008;13.666;2024-02-23T07:51:10;2.10;;;0.68;;
59024;SDS011;44806;48.008;13.666;2024-02-23T07:53:37;2.40;;;0.57;;
59024;SDS011;44806;48.008;13.666;2024-02-23T07:56:07;3.13;;;0.60;;
59024;SDS011;44806;48.008;13.666;2024-02-23T07:58:34;3.22;;;0.70;;
59024;SDS011;44806;48.008;13.666;2024-02-23T08:01:01;2.42;;;0.63;;
59024;SDS011;44806;48.008;13.666;2024-02-23T08:03:29;1.85;;;0.40;;
59024;SDS011;44806;48.008;13.666;2024-02-23T08:05:58;1.27;;;0.30;;
59024;SDS011;44806;48.008;13.666;2024-02-23T08:08:26;0.85;;;0.35;;
59024;SDS011;44806;48.008;13.666;2024-02-23T08:10:53;1.15;;;0.50;;
59024;SDS011;44806;48.008;13.666;2024-02-23T08:13:20;0.85;;;0.30;;
59024;SDS011;44806;48.008;13.666;2024-02-23T08:15:47;2.17;;;0.80;;
59024;SDS011;44806;48.008;13.666;2024-02-23T08:18:14;3.20;;;0.98;;
59024;SDS011;44806;48.008;13.666;2024-02-23T08:20:41;1.70;;;0.43;;
59024;SDS011;44806;48.008;13.666;2024-02-23T08:23:09;0.20;;;0.10;;
59024;SDS011;44806;48.008;13.666;2024-02-23T08:25:36;0.98;;;0.30;;
59024;SDS011;44806;48.008;13.666;2024-02-23T08:28:04;2.50;;;0.40;;
59024;SDS011;44806;48.008;13.666;2024-02-23T08:30:31;0.43;;;0.15;;
59024;SDS011;44806;48.008;13.666;2024-02-23T08:32:58;1.98;;;0.20;;
59024;SDS011;44806;48.008;13.666;2024-02-23T08:35:26;0.52;;;0.17;;
59024;SDS011;44806;48.008;13.666;2024-02-23T08:37:53;1.25;;;0.20;;
59024;SDS011;44806;48.008;13.666;2024-02-23T08:40:21;0.77;;;0.20;;
59024;SDS011;44806;48.008;13.666;2024-02-23T08:42:48;0.45;;;0.10;;
59024;SDS011;44806;48.008;13.666;2024-02-23T08:45:17;0.80;;;0.35;;
59024;SDS011;44806;48.008;13.666;2024-02-23T08:47:44;0.75;;;0.20;;
59024;SDS011;44806;48.008;13.666;2024-02-23T08:50:11;1.60;;;0.52;;
59024;SDS011;44806;48.008;13.666;2024-02-23T08:52:39;0.47;;;0.20;;
59024;SDS011;44806;48.008;13.666;2024-02-23T08:55:06;0.15;;;0.10;;
59024;SDS011;44806;48.008;13.666;2024-02-23T08:57:35;0.00;;;0.00;;
59024;SDS011;44806;48.008;13.666;2024-02-23T09:00:03;1.15;;;0.20;;
59024;SDS011;44806;48.008;13.666;2024-02-23T09:02:30;1.98;;;0.20;;
59024;SDS011;44806;48.008;13.666;2024-02-23T09:04:57;1.13;;;0.20;;
59024;SDS011;44806;48.008;13.666;2024-02-23T09:07:26;0.85;;;0.20;;
59024;SDS011;44806;48.008;13.666;2024-02-23T09:09:53;0.20;;;0.10;;
59024;SDS011;44806;48.008;13.666;2024-02-23T09:12:21;0.50;;;0.10;;
59024;SDS011;44806;48.008;13.666;2024-02-23T09:14:50;0.32;;;0.10;;
59024;SDS011;44806;48.008;13.666;2024-02-23T09:17:16;0.10;;;0.10;;
59024;SDS011;44806;48.008;13.666;2024-02-23T09:19:45;0.30;;;0.10;;
59024;SDS011;44806;48.008;13.666;2024-02-23T09:22:15;0.30;;;0.10;;
59024;SDS011;44806;48.008;13.666;2024-02-23T09:24:42;0.30;;;0.10;;
59024;SDS011;44806;48.008;13.666;2024-02-23T09:27:09;0.75;;;0.30;;
59024;SDS011;44806;48.008;13.666;2024-02-23T09:29:37;0.15;;;0.15;;
59024;SDS011;44806;48.008;13.666;2024-02-23T09:32:05;0.95;;;0.10;;
59024;SDS011;44806;48.008;13.666;2024-02-23T09:34:32;11.30;;;6.20;;
59024;SDS011;44806;48.008;13.666;2024-02-23T09:36:59;6.40;;;2.30;;
59024;SDS011;44806;48.008;13.666;2024-02-23T09:39:26;0.30;;;0.10;;
59024;SDS011;44806;48.008;13.666;2024-02-23T09:41:55;2.00;;;0.80;;
59024;SDS011;44806;48.008;13.666;2024-02-23T09:44:22;0.80;;;0.30;;
59024;SDS011;44806;48.008;13.666;2024-02-23T09:46:49;1.60;;;0.70;;
59024;SDS011;44806;48.008;13.666;2024-02-23T09:49:18;2.47;;;0.50;;
59024;SDS011;44806;48.008;13.666;2024-02-23T09:51:45;0.10;;;0.10;;
59024;SDS011;44806;48.008;13.666;2024-02-23T09:54:12;1.95;;;0.60;;
59024;SDS011;44806;48.008;13.666;2024-02-23T09:56:39;1.15;;;0.35;;
59024;SDS011;44806;48.008;13.666;2024-02-23T09:59:07;0.47;;;0.10;;
59024;SDS011;44806;48.008;13.666;2024-02-23T10:01:34;1.00;;;0.30;;
59024;SDS011;44806;48.008;13.666;2024-02-23T10:04:02;2.58;;;0.82;;
59024;SDS011;44806;48.008;13.666;2024-02-23T10:06:33;1.92;;;0.68;;
59024;SDS011;44806;48.008;13.666;2024-02-23T10:09:00;1.35;;;0.40;;
59024;SDS011;44806;48.008;13.666;2024-02-23T10:11:29;0.95;;;0.32;;
59024;SDS011;44806;48.008;13.666;2024-02-23T10:13:56;2.17;;;0.85;;
59024;SDS011;44806;48.008;13.666;2024-02-23T10:16:23;1.80;;;0.77;;
59024;SDS011;44806;48.008;13.666;2024-02-23T10:18:50;1.73;;;0.75;;
59024;SDS011;44806;48.008;13.666;2024-02-23T10:21:17;3.13;;;1.17;;
59024;SDS011;44806;48.008;13.666;2024-02-23T10:23:45;0.50;;;0.30;;
59024;SDS011;44806;48.008;13.666;2024-02-23T10:26:15;2.65;;;0.82;;
59024;SDS011;44806;48.008;13.666;2024-02-23T10:28:44;2.10;;;0.43;;
59024;SDS011;44806;48.008;13.666;2024-02-23T10:31:12;1.52;;;0.50;;
59024;SDS011;44806;48.008;13.666;2024-02-23T10:33:38;1.02;;;0.30;;
59024;SDS011;44806;48.008;13.666;2024-02-23T10:36:06;1.27;;;0.25;;
59024;SDS011;44806;48.008;13.666;2024-02-23T10:38:34;1.88;;;0.43;;
59024;SDS011;44806;48.008;13.666;2024-02-23T10:41:05;2.75;;;0.55;;
59024;SDS011;44806;48.008;13.666;2024-02-23T10:43:36;3.55;;;0.50;;
59024;SDS011;44806;48.008;13.666;2024-02-23T10:46:08;5.88;;;0.70;;
59024;SDS011;44806;48.008;13.666;2024-02-23T10:48:38;4.43;;;0.88;;
59024;SDS011;44806;48.008;13.666;2024-02-23T10:51:05;3.92;;;0.85;;
59024;SDS011;44806;48.008;13.666;2024-02-23T10:53:36;4.75;;;1.17;;
59024;SDS011;44806;48.008;13.666;2024-02-23T10:56:07;4.50;;;1.30;;
59024;SDS011;44806;48.008;13.666;2024-02-23T10:58:36;4.03;;;1.17;;
59024;SDS011;44806;48.008;13.666;2024-02-23T11:01:04;9.32;;;2.60;;
59024;SDS011;44806;48.008;13.666;2024-02-23T11:03:34;8.73;;;1.92;;
59024;SDS011;44806;48.008;13.666;2024-02-23T11:06:05;6.90;;;1.13;;
59024;SDS011;44806;48.008;13.666;2024-02-23T11:08:34;2.03;;;0.70;;
59024;SDS011;44806;48.008;13.666;2024-02-23T11:11:08;0.88;;;0.40;;
59024;SDS011;44806;48.008;13.666;2024-02-23T11:13:36;2.53;;;0.63;;
59024;SDS011;44806;48.008;13.666;2024-02-23T11:16:03;2.97;;;0.75;;
59024;SDS011;44806;48.008;13.666;2024-02-23T11:18:31;1.92;;;0.80;;
59024;SDS011;44806;48.008;13.666;2024-02-23T11:21:02;1.75;;;0.63;;
59024;SDS011;44806;48.008;13.666;2024-02-23T11:23:38;1.75;;;0.50;;
59024;SDS011;44806;48.008;13.666;2024-02-23T11:26:10;1.58;;;0.45;;
59024;SDS011;44806;48.008;13.666;2024-02-23T11:28:41;3.92;;;1.02;;
59024;SDS011;44806;48.008;13.666;2024-02-23T11:31:13;7.32;;;2.15;;
59024;SDS011;44806;48.008;13.666;2024-02-23T11:33:40;6.90;;;2.95;;
59024;SDS011;44806;48.008;13.666;2024-02-23T11:36:21;4.35;;;1.45;;
59024;SDS011;44806;48.008;13.666;2024-02-23T11:38:49;1.63;;;0.70;;
59024;SDS011;44806;48.008;13.666;2024-02-23T11:41:21;2.95;;;0.73;;
59024;SDS011;44806;48.008;13.666;2024-02-23T11:43:50;2.13;;;0.32;;
59024;SDS011;44806;48.008;13.666;2024-02-23T11:46:17;1.27;;;0.20;;
59024;SDS011;44806;48.008;13.666;2024-02-23T11:48:45;0.60;;;0.30;;
59024;SDS011;44806;48.008;13.666;2024-02-23T11:51:18;0.20;;;0.20;;
59024;SDS011;44806;48.008;13.666;2024-02-23T11:53:45;1.58;;;0.38;;
59024;SDS011;44806;48.008;13.666;2024-02-23T11:56:12;1.50;;;0.57;;
59024;SDS011;44806;48.008;13.666;2024-02-23T11:58:42;2.80;;;0.50;;
59024;SDS011;44806;48.008;13.666;2024-02-23T12:01:09;1.67;;;0.40;;
59024;SDS011;44806;48.008;13.666;2024-02-23T12:03:36;1.45;;;0.50;;
59024;SDS011;44806;48.008;13.666;2024-02-23T12:06:04;2.38;;;0.63;;
59024;SDS011;44806;48.008;13.666;2024-02-23T12:08:32;1.30;;;0.40;;
59024;SDS011;44806;48.008;13.666;2024-02-23T12:11:03;4.45;;;0.93;;
59024;SDS011;44806;48.008;13.666;2024-02-23T12:13:31;5.95;;;1.25;;
59024;SDS011;44806;48.008;13.666;2024-02-23T12:15:59;1.60;;;0.70;;
59024;SDS011;44806;48.008;13.666;2024-02-23T12:18:27;2.33;;;0.50;;
59024;SDS011;44806;48.008;13.666;2024-02-23T12:20:58;1.13;;;0.38;;
59024;SDS011;44806;48.008;13.666;2024-02-23T12:23:26;1.20;;;0.50;;
59024;SDS011;44806;48.008;13.666;2024-02-23T12:25:53;0.55;;;0.20;;
59024;SDS011;44806;48.008;13.666;2024-02-23T12:28:25;2.83;;;0.47;;
59024;SDS011;44806;48.008;13.666;2024-02-23T12:31:00;0.93;;;0.35;;
59024;SDS011;44806;48.008;13.666;2024-02-23T12:33:27;3.00;;;0.80;;
59024;SDS011;44806;48.008;13.666;2024-02-23T12:35:55;2.63;;;0.40;;
59024;SDS011;44806;48.008;13.666;2024-02-23T12:38:24;2.47;;;0.60;;
59024;SDS011;44806;48.008;13.666;2024-02-23T12:40:51;14.07;;;4.72;;
59024;SDS011;44806;48.008;13.666;2024-02-23T12:43:19;6.65;;;1.30;;
59024;SDS011;44806;48.008;13.666;2024-02-23T12:45:46;9.73;;;5.45;;
59024;SDS011;44806;48.008;13.666;2024-02-23T12:48:16;5.43;;;3.03;;
59024;SDS011;44806;48.008;13.666;2024-02-23T12:50:45;8.15;;;4.82;;
59024;SDS011;44806;48.008;13.666;2024-02-23T12:53:29;6.75;;;3.92;;
59024;SDS011;44806;48.008;13.666;2024-02-23T12:55:57;7.15;;;4.07;;
59024;SDS011;44806;48.008;13.666;2024-02-23T12:58:25;4.88;;;2.15;;
59024;SDS011;44806;48.008;13.666;2024-02-23T13:00:52;6.22;;;3.05;;
59024;SDS011;44806;48.008;13.666;2024-02-23T13:03:23;3.88;;;1.58;;
59024;SDS011;44806;48.008;13.666;2024-02-23T13:05:51;3.10;;;1.02;;
59024;SDS011;44806;48.008;13.666;2024-02-23T13:08:18;2.28;;;0.95;;
59024;SDS011;44806;48.008;13.666;2024-02-23T13:10:45;1.60;;;0.70;;
59024;SDS011;44806;48.008;13.666;2024-02-23T13:13:12;2.92;;;0.90;;
59024;SDS011;44806;48.008;13.666;2024-02-23T13:15:40;6.20;;;1.08;;
59024;SDS011;44806;48.008;13.666;2024-02-23T13:18:07;4.82;;;1.73;;
59024;SDS011;44806;48.008;13.666;2024-02-23T13:20:36;1.27;;;0.52;;
59024;SDS011;44806;48.008;13.666;2024-02-23T13:23:03;2.22;;;0.80;;
59024;SDS011;44806;48.008;13.666;2024-02-23T13:25:32;3.25;;;0.70;;
59024;SDS011;44806;48.008;13.666;2024-02-23T13:27:59;1.15;;;0.40;;
59024;SDS011;44806;48.008;13.666;2024-02-23T13:30:26;0.90;;;0.20;;
59024;SDS011;44806;48.008;13.666;2024-02-23T13:32:53;3.05;;;0.80;;
59024;SDS011;44806;48.008;13.666;2024-02-23T13:35:20;3.00;;;1.00;;
59024;SDS011;44806;48.008;13.666;2024-02-23T13:37:48;3.13;;;0.65;;
59024;SDS011;44806;48.008;13.666;2024-02-23T13:40:15;1.60;;;0.40;;
59024;SDS011;44806;48.008;13.666;2024-02-23T13:42:42;2.28;;;0.47;;
59024;SDS011;44806;48.008;13.666;2024-02-23T13:45:14;0.95;;;0.32;;
59024;SDS011;44806;48.008;13.666;2024-02-23T13:47:42;0.85;;;0.40;;
59024;SDS011;44806;48.008;13.666;2024-02-23T13:50:09;0.70;;;0.40;;
59024;SDS011;44806;48.008;13.666;2024-02-23T13:52:37;2.38;;;0.70;;
59024;SDS011;44806;48.008;13.666;2024-02-23T13:55:06;2.28;;;0.85;;
59024;SDS011;44806;48.008;13.666;2024-02-23T13:57:34;1.92;;;0.60;;
59024;SDS011;44806;48.008;13.666;2024-02-23T14:00:01;1.23;;;0.32;;
59024;SDS011;44806;48.008;13.666;2024-02-23T14:02:28;1.75;;;0.70;;
59024;SDS011;44806;48.008;13.666;2024-02-23T14:04:59;2.53;;;0.80;;
59024;SDS011;44806;48.008;13.666;2024-02-23T14:07:29;2.15;;;0.60;;
59024;SDS011;44806;48.008;13.666;2024-02-23T14:09:56;1.38;;;0.40;;
59024;SDS011;44806;48.008;13.666;2024-02-23T14:12:25;1.27;;;0.52;;
59024;SDS011;44806;48.008;13.666;2024-02-23T14:14:53;8.20;;;3.10;;
59024;SDS011;44806;48.008;13.666;2024-02-23T14:17:20;3.05;;;1.08;;
59024;SDS011;44806;48.008;13.666;2024-02-23T14:19:47;1.52;;;0.60;;
59024;SDS011;44806;48.008;13.666;2024-02-23T14:22:15;3.00;;;0.95;;
59024;SDS011;44806;48.008;13.666;2024-02-23T14:24:42;1.67;;;0.50;;
59024;SDS011;44806;48.008;13.666;2024-02-23T14:27:10;0.35;;;0.20;;
59024;SDS011;44806;48.008;13.666;2024-02-23T14:29:38;1.52;;;0.40;;
59024;SDS011;44806;48.008;13.666;2024-02-23T14:32:05;0.90;;;0.30;;
59024;SDS011;44806;48.008;13.666;2024-02-23T14:34:32;0.98;;;0.40;;
59024;SDS011;44806;48.008;13.666;2024-02-23T14:37:00;1.10;;;0.35;;